createdAt,value
2018-08-28T00:03:05.950Z,97976.78
2018-08-28T00:07:58.882Z,97860.73
2018-08-28T00:12:52.114Z,97946.89
2018-08-28T00:17:46.054Z,97952.92
2018-08-28T00:22:39.142Z,97956.80
2018-08-28T00:27:32.243Z,97961.78
2018-08-28T00:32:25.218Z,97929.00
2018-08-28T00:37:18.310Z,97898.55
2018-08-28T00:42:11.387Z,97899.58
2018-08-28T00:47:04.473Z,97917.33
2018-08-28T00:51:57.422Z,97973.73
2018-08-28T00:56:51.170Z,97925.17
2018-08-28T01:01:44.252Z,97997.20
2018-08-28T01:06:37.459Z,97964.26
2018-08-28T01:11:30.543Z,97955.00
2018-08-28T01:16:23.583Z,97975.75
2018-08-28T01:21:16.490Z,97952.48
2018-08-28T01:26:09.658Z,97988.82
2018-08-28T01:31:02.748Z,97961.88
2018-08-28T01:35:56.095Z,97951.86
2018-08-28T01:40:49.185Z,97965.73
2018-08-28T01:45:42.383Z,97974.53
2018-08-28T01:50:35.462Z,97963.92
2018-08-28T01:55:28.494Z,97936.55
2018-08-28T02:00:21.748Z,97958.94
2018-08-28T02:05:14.739Z,97950.22
2018-08-28T02:10:07.914Z,97917.53
2018-08-28T02:15:00.912Z,97972.77
2018-08-28T02:19:53.833Z,97948.78
2018-08-28T02:24:46.755Z,97919.72
2018-08-28T02:29:39.857Z,97918.52
2018-08-28T02:34:32.883Z,97894.19
2018-08-28T02:39:25.818Z,97926.90
2018-08-28T02:44:18.751Z,97931.75
2018-08-28T02:49:11.855Z,97930.33
2018-08-28T02:54:04.842Z,97943.12
2018-08-28T02:58:57.899Z,97961.78
2018-08-28T03:03:51.141Z,97927.81
2018-08-28T03:08:44.162Z,97950.69
2018-08-28T03:13:37.167Z,97949.73
2018-08-28T03:18:30.157Z,97970.78
2018-08-28T03:23:23.109Z,97993.86
2018-08-28T03:28:17.016Z,97972.20
2018-08-28T03:33:10.090Z,97968.30
2018-08-28T03:38:03.220Z,97984.76
2018-08-28T03:42:56.148Z,98004.86
2018-08-28T03:47:49.110Z,97968.30
2018-08-28T03:52:42.158Z,98004.59
2018-08-28T03:57:35.170Z,97968.46
2018-08-28T04:02:28.141Z,97991.66
2018-08-28T04:07:21.229Z,97984.34
2018-08-28T04:12:14.179Z,97957.87
2018-08-28T04:17:07.217Z,97941.84
2018-08-28T04:22:00.287Z,97963.33
2018-08-28T04:26:53.348Z,97990.30
2018-08-28T04:31:46.506Z,97959.53
2018-08-28T04:36:39.510Z,97941.28
2018-08-28T04:41:32.585Z,97939.72
2018-08-28T04:46:25.560Z,97915.81
2018-08-28T04:51:18.569Z,97948.28
2018-08-28T04:56:11.584Z,97939.69
2018-08-28T05:01:04.609Z,97941.32
2018-08-28T05:05:57.847Z,97951.67
2018-08-28T05:10:50.916Z,97963.85
2018-08-28T05:15:43.966Z,97960.17
2018-08-28T05:20:37.004Z,97951.86
2018-08-28T05:25:31.246Z,97957.36
2018-08-28T05:30:24.472Z,97989.50
2018-08-28T05:35:17.727Z,98006.62
2018-08-28T05:40:10.791Z,98005.49
2018-08-28T05:45:04.034Z,97983.63
2018-08-28T05:49:57.216Z,97992.42
2018-08-28T05:54:50.361Z,97979.69
2018-08-28T05:59:43.345Z,97955.27
2018-08-28T06:04:36.608Z,97975.16
2018-08-28T06:09:29.714Z,98070.47
2018-08-28T06:14:22.902Z,97993.42
2018-08-28T06:19:15.998Z,98036.97
2018-08-28T06:24:08.974Z,98019.48
2018-08-28T06:29:01.907Z,98011.37
2018-08-28T06:33:54.976Z,98034.45
2018-08-28T06:38:47.953Z,98032.28
2018-08-28T06:43:41.030Z,98017.52
2018-08-28T06:48:34.949Z,98053.48
2018-08-28T06:53:28.015Z,98067.16
2018-08-28T06:58:21.066Z,98066.00
2018-08-28T07:03:14.111Z,98098.34
2018-08-28T07:08:07.527Z,98051.81
2018-08-28T07:13:00.591Z,98091.94
2018-08-28T07:17:53.574Z,98083.31
2018-08-28T07:22:46.694Z,98080.19
2018-08-28T07:27:39.814Z,98082.95
2018-08-28T07:32:32.958Z,98086.55
2018-08-28T07:37:26.054Z,98073.66
2018-08-28T07:42:19.026Z,98094.66
2018-08-28T07:47:12.044Z,98081.43
2018-08-28T07:52:05.307Z,98061.77
2018-08-28T07:56:58.348Z,98095.13
2018-08-28T08:01:51.563Z,98079.62
2018-08-28T08:06:44.809Z,98075.49
2018-08-28T08:11:37.775Z,98096.69
2018-08-28T08:16:30.989Z,98085.52
2018-08-28T08:21:24.999Z,98073.88
2018-08-28T08:26:18.619Z,98056.45
2018-08-28T08:31:12.117Z,98096.67
2018-08-28T08:36:05.244Z,98081.00
2018-08-28T08:40:58.404Z,98052.81
2018-08-28T08:45:51.565Z,98078.32
2018-08-28T08:50:44.943Z,98073.28
2018-08-28T08:55:37.985Z,98083.44
2018-08-28T09:00:30.987Z,98075.06
2018-08-28T09:05:24.140Z,98086.59
2018-08-28T09:10:17.732Z,98080.65
2018-08-28T09:15:11.404Z,98059.91
2018-08-28T09:20:04.707Z,98049.43
2018-08-28T09:24:58.113Z,98063.39
2018-08-28T09:29:51.124Z,98104.43
2018-08-28T09:34:44.066Z,98077.20
2018-08-28T09:39:37.203Z,98083.58
2018-08-28T09:44:30.251Z,98107.69
2018-08-28T09:49:23.538Z,98058.89
2018-08-28T09:54:16.518Z,98104.77
2018-08-28T09:59:09.534Z,98083.42
2018-08-28T10:04:02.564Z,98073.37
2018-08-28T10:08:57.712Z,98070.14
2018-08-28T10:13:50.677Z,98051.33
2018-08-28T10:18:43.716Z,98066.45
2018-08-28T10:23:36.858Z,98062.22
2018-08-28T10:28:30.027Z,98068.06
2018-08-28T10:33:23.064Z,98085.75
2018-08-28T10:38:16.537Z,98074.70
2018-08-28T10:43:09.689Z,98088.19
2018-08-28T10:48:02.819Z,98089.23
2018-08-28T10:52:56.238Z,98090.28
2018-08-28T10:57:49.691Z,98073.59
2018-08-28T11:02:43.249Z,98099.83
2018-08-28T11:07:36.504Z,98077.58
2018-08-28T11:12:29.538Z,98085.38
2018-08-28T11:17:26.917Z,98077.52
2018-08-28T11:22:20.126Z,98096.62
2018-08-28T11:27:13.238Z,98096.87
2018-08-28T11:32:06.288Z,98089.38
2018-08-28T11:36:59.683Z,98086.63
2018-08-28T11:41:52.806Z,98082.13
2018-08-28T11:46:45.891Z,98068.72
2018-08-28T11:51:38.863Z,98087.02
2018-08-28T11:56:31.942Z,98087.78
2018-08-28T12:01:25.013Z,98088.58
2018-08-28T12:06:18.239Z,98097.20
2018-08-28T12:11:11.346Z,98076.48
2018-08-28T12:16:04.487Z,98067.42
2018-08-28T12:20:58.244Z,98090.84
2018-08-28T12:25:51.609Z,98057.81
2018-08-28T12:30:45.261Z,98101.25
2018-08-28T12:35:38.394Z,98070.23
2018-08-28T12:40:31.839Z,98093.22
2018-08-28T12:45:24.820Z,98090.30
2018-08-28T12:50:17.941Z,98086.11
2018-08-28T12:55:11.449Z,98086.75
2018-08-28T13:00:05.080Z,98109.10
2018-08-28T13:04:58.373Z,98129.82
2018-08-28T13:09:51.509Z,98088.63
2018-08-28T13:14:44.553Z,98088.53
2018-08-28T13:19:38.083Z,98110.77
2018-08-28T13:24:31.263Z,98092.60
2018-08-28T13:29:24.305Z,98109.59
2018-08-28T13:34:17.438Z,98114.58
2018-08-28T13:39:10.487Z,98123.03
2018-08-28T13:44:10.354Z,98133.48
2018-08-28T13:49:03.713Z,98132.40
2018-08-28T13:53:57.701Z,98132.03
2018-08-28T13:58:50.829Z,98133.64
2018-08-28T14:03:53.278Z,98129.36
2018-08-28T14:08:48.464Z,98141.27
2018-08-28T14:13:41.788Z,98134.64
2018-08-28T14:18:34.938Z,98147.58
2018-08-28T14:23:29.420Z,98151.19
2018-08-28T14:28:22.399Z,98146.03
2018-08-28T14:33:15.520Z,98149.81
2018-08-28T14:38:09.579Z,98128.08
2018-08-28T14:43:02.601Z,98126.75
2018-08-28T14:47:56.300Z,98131.67
2018-08-28T14:52:49.414Z,98130.58
2018-08-28T14:57:42.641Z,98126.00
2018-08-28T15:02:35.744Z,98142.86
2018-08-28T15:07:28.824Z,98138.23
2018-08-28T15:12:21.893Z,98165.05
2018-08-28T15:17:15.654Z,98140.59
2018-08-28T15:22:08.756Z,98140.32
2018-08-28T15:27:01.993Z,98143.58
2018-08-28T15:31:55.053Z,98135.84
2018-08-28T15:36:48.196Z,98138.58
2018-08-28T15:41:41.249Z,98122.73
2018-08-28T15:46:34.473Z,98156.28
2018-08-28T15:51:27.817Z,98136.38
2018-08-28T15:56:20.799Z,98160.84
2018-08-28T16:01:13.896Z,98138.41
2018-08-28T16:06:06.995Z,98106.48
2018-08-28T16:11:00.057Z,98110.31
2018-08-28T16:15:53.347Z,98103.60
2018-08-28T16:20:46.555Z,98135.19
2018-08-28T16:25:39.797Z,98108.23
2018-08-28T16:30:32.843Z,98186.73
2018-08-28T16:35:25.926Z,98151.03
2018-08-28T16:40:19.106Z,98174.33
2018-08-28T16:45:12.372Z,98150.81
2018-08-28T16:50:05.771Z,98158.13
2018-08-28T16:54:58.979Z,98158.41
2018-08-28T16:59:52.192Z,98167.00
2018-08-28T17:04:45.351Z,98180.92
2018-08-28T17:09:38.352Z,98176.95
2018-08-28T17:14:31.583Z,98183.00
2018-08-28T17:19:24.628Z,98163.03
2018-08-28T17:24:17.884Z,98151.48
2018-08-28T17:29:10.990Z,98181.70
2018-08-28T17:34:03.999Z,98183.41
2018-08-28T17:38:57.461Z,98223.26
2018-08-28T17:43:50.923Z,98202.60
2018-08-28T17:48:44.632Z,98211.66
2018-08-28T17:53:37.801Z,98204.68
2018-08-28T17:58:33.016Z,98261.80
2018-08-28T18:03:26.115Z,98229.30
2018-08-28T18:08:19.204Z,98204.15
2018-08-28T18:13:12.311Z,98194.74
2018-08-28T18:18:05.336Z,98203.48
2018-08-28T18:22:58.518Z,98201.41
2018-08-28T18:27:51.616Z,98186.09
2018-08-28T18:32:44.675Z,98224.40
2018-08-28T18:37:37.866Z,98196.59
2018-08-28T18:42:30.935Z,98218.59
2018-08-28T18:47:25.201Z,98275.66
2018-08-28T18:52:18.313Z,98209.94
2018-08-28T18:57:11.361Z,98183.09
2018-08-28T19:02:04.555Z,98272.09
2018-08-28T19:06:57.666Z,98217.64
2018-08-28T19:11:50.686Z,98213.09
2018-08-28T19:16:43.858Z,98212.22
2018-08-28T19:21:36.951Z,98230.86
2018-08-28T19:26:30.104Z,98218.43
2018-08-28T19:31:23.194Z,98204.93
2018-08-28T19:36:16.586Z,98194.33
2018-08-28T19:41:09.605Z,98195.97
2018-08-28T19:46:02.795Z,98246.73
2018-08-28T19:50:55.815Z,98224.42
2018-08-28T19:55:48.795Z,98240.09
2018-08-28T20:00:41.844Z,98244.29
2018-08-28T20:05:34.912Z,98229.73
2018-08-28T20:10:28.036Z,98215.36
2018-08-28T20:15:22.809Z,98212.20
2018-08-28T20:20:15.867Z,98211.16
2018-08-28T20:25:09.002Z,98288.75
2018-08-28T20:30:02.228Z,98241.70
2018-08-28T20:34:55.565Z,98307.39
2018-08-28T20:39:48.676Z,98269.20
2018-08-28T20:44:41.754Z,98269.40
2018-08-28T20:49:34.971Z,98245.92
2018-08-28T20:54:28.066Z,98236.92
2018-08-28T20:59:21.141Z,98196.28
2018-08-28T21:04:14.190Z,98254.92
2018-08-28T21:09:07.819Z,98322.75
2018-08-28T21:14:00.954Z,98234.81
2018-08-28T21:18:54.143Z,98226.94
2018-08-28T21:23:47.243Z,98196.17
2018-08-28T21:28:40.441Z,98160.21
2018-08-28T21:33:33.553Z,98217.19
2018-08-28T21:38:26.697Z,98176.44
2018-08-28T21:43:19.772Z,98195.15
2018-08-28T21:48:12.941Z,98199.70
2018-08-28T21:53:06.135Z,98204.94
2018-08-28T21:57:59.305Z,98211.10
2018-08-28T22:02:52.321Z,98166.93
2018-08-28T22:07:45.297Z,98170.98
2018-08-28T22:12:38.385Z,98190.98
2018-08-28T22:17:31.622Z,98168.95
2018-08-28T22:22:24.725Z,98208.27
2018-08-28T22:27:17.835Z,98169.27
2018-08-28T22:32:10.944Z,98214.50
2018-08-28T22:37:04.123Z,98187.50
2018-08-28T22:41:57.262Z,98186.41
2018-08-28T22:46:50.287Z,98181.74
2018-08-28T22:51:43.367Z,98185.59
2018-08-28T22:56:36.432Z,98172.50
2018-08-28T23:01:29.472Z,98184.30
2018-08-28T23:06:22.781Z,98162.75
2018-08-28T23:11:15.857Z,98194.17
2018-08-28T23:16:10.838Z,98181.80
2018-08-28T23:21:03.954Z,98171.23
2018-08-28T23:25:56.943Z,98264.33
2018-08-28T23:30:50.192Z,98163.59
2018-08-28T23:35:43.299Z,98166.54
2018-08-28T23:40:36.282Z,98172.97
2018-08-28T23:45:29.252Z,98200.28
2018-08-28T23:50:22.308Z,98170.78
2018-08-28T23:55:15.289Z,98161.34
